sensor_id;sensor_type;location;lat;lon;timestamp;pressure;altitude;pressure_sealevel;temperature;humidity
16834;BME280;8533;48.426;10.868;2023-09-12T00:00:18;95899.34;;;17.47;100.00
16834;BME280;8533;48.426;10.868;2023-09-12T00:02:44;95900.44;;;17.46;100.00
16834;BME280;8533;48.426;10.868;2023-09-12T00:05:09;95899.16;;;17.43;100.00
16834;BME280;8533;48.426;10.868;2023-09-12T00:07:35;95841.38;;;17.09;100.00
16834;BME280;8533;48.426;10.868;2023-09-12T00:10:02;95859.22;;;17.17;100.00
16834;BME280;8533;48.426;10.868;2023-09-12T00:12:27;95852.94;;;17.13;100.00
16834;BME280;8533;48.426;10.868;2023-09-12T00:14:52;95886.81;;;17.39;100.00
16834;BME280;8533;48.426;10.868;2023-09-12T00:17:18;95882.72;;;17.33;100.00
16834;BME280;8533;48.426;10.868;2023-09-12T00:19:43;95858.81;;;17.10;100.00
16834;BME280;8533;48.426;10.868;2023-09-12T00:22:09;95889.56;;;17.34;100.00
16834;BME280;8533;48.426;10.868;2023-09-12T00:24:34;95890.66;;;17.33;100.00
16834;BME280;8533;48.426;10.868;2023-09-12T00:26:59;95834.22;;;16.96;100.00
16834;BME280;8533;48.426;10.868;2023-09-12T00:29:25;95890.94;;;17.31;100.00
16834;BME280;8533;48.426;10.868;2023-09-12T00:31:50;95886.81;;;17.25;100.00
16834;BME280;8533;48.426;10.868;2023-09-12T00:34:16;95889.66;;;17.29;100.00
16834;BME280;8533;48.426;10.868;2023-09-12T00:36:42;95889.19;;;17.27;100.00
16834;BME280;8533;48.426;10.868;2023-09-12T00:39:07;95895.53;;;17.26;100.00
16834;BME280;8533;48.426;10.868;2023-09-12T00:41:32;95878.19;;;17.20;100.00
16834;BME280;8533;48.426;10.868;2023-09-12T00:43:58;95864.47;;;17.04;100.00
16834;BME280;8533;48.426;10.868;2023-09-12T00:46:23;95837.25;;;16.90;100.00
16834;BME280;8533;48.426;10.868;2023-09-12T00:48:50;95865.19;;;17.09;100.00
16834;BME280;8533;48.426;10.868;2023-09-12T00:51:17;95872.13;;;17.19;100.00
16834;BME280;8533;48.426;10.868;2023-09-12T00:53:46;95816.69;;;16.87;100.00
16834;BME280;8533;48.426;10.868;2023-09-12T00:56:11;95868.31;;;17.25;100.00
16834;BME280;8533;48.426;10.868;2023-09-12T00:58:36;95864.88;;;17.25;100.00
16834;BME280;8533;48.426;10.868;2023-09-12T01:01:02;95872.31;;;17.23;100.00
16834;BME280;8533;48.426;10.868;2023-09-12T01:03:28;95819.25;;;16.92;100.00
16834;BME280;8533;48.426;10.868;2023-09-12T01:05:54;95870.75;;;17.22;100.00
16834;BME280;8533;48.426;10.868;2023-09-12T01:08:19;95867.94;;;17.18;100.00
16834;BME280;8533;48.426;10.868;2023-09-12T01:10:47;95874.28;;;17.17;100.00
16834;BME280;8533;48.426;10.868;2023-09-12T01:13:14;95839.22;;;16.98;100.00
16834;BME280;8533;48.426;10.868;2023-09-12T01:15:40;95788.66;;;16.58;100.00
16834;BME280;8533;48.426;10.868;2023-09-12T01:18:06;95871.31;;;17.05;100.00
16834;BME280;8533;48.426;10.868;2023-09-12T01:20:34;95840.56;;;16.68;100.00
16834;BME280;8533;48.426;10.868;2023-09-12T01:23:17;95863.28;;;16.96;100.00
16834;BME280;8533;48.426;10.868;2023-09-12T01:26:01;95860.16;;;16.94;100.00
16834;BME280;8533;48.426;10.868;2023-09-12T01:28:29;95873.47;;;16.89;100.00
16834;BME280;8533;48.426;10.868;2023-09-12T01:30:58;95867.78;;;16.82;100.00
16834;BME280;8533;48.426;10.868;2023-09-12T01:33:23;95857.59;;;16.75;100.00
16834;BME280;8533;48.426;10.868;2023-09-12T01:35:49;95853.16;;;16.71;100.00
16834;BME280;8533;48.426;10.868;2023-09-12T01:38:14;95869.13;;;16.79;100.00
16834;BME280;8533;48.426;10.868;2023-09-12T01:40:49;95840.28;;;16.51;100.00
16834;BME280;8533;48.426;10.868;2023-09-12T01:43:17;95870.09;;;16.70;100.00
16834;BME280;8533;48.426;10.868;2023-09-12T01:45:44;95878.59;;;16.67;100.00
16834;BME280;8533;48.426;10.868;2023-09-12T01:48:11;95875.75;;;16.63;100.00
16834;BME280;8533;48.426;10.868;2023-09-12T01:50:37;95874.47;;;16.61;100.00
16834;BME280;8533;48.426;10.868;2023-09-12T01:53:03;95877.66;;;16.58;100.00
16834;BME280;8533;48.426;10.868;2023-09-12T01:55:29;95877.94;;;16.56;100.00
16834;BME280;8533;48.426;10.868;2023-09-12T01:57:55;95881.97;;;16.54;100.00
16834;BME280;8533;48.426;10.868;2023-09-12T02:00:22;95884.09;;;16.52;100.00
16834;BME280;8533;48.426;10.868;2023-09-12T02:02:47;95857.66;;;16.19;100.00
16834;BME280;8533;48.426;10.868;2023-09-12T02:05:17;95920.66;;;16.45;100.00
16834;BME280;8533;48.426;10.868;2023-09-12T02:07:44;95878.69;;;16.43;100.00
16834;BME280;8533;48.426;10.868;2023-09-12T02:10:10;95876.84;;;16.44;100.00
16834;BME280;8533;48.426;10.868;2023-09-12T02:12:36;95888.47;;;16.42;100.00
16834;BME280;8533;48.426;10.868;2023-09-12T02:15:02;95865.22;;;16.26;100.00
16834;BME280;8533;48.426;10.868;2023-09-12T02:17:27;95892.44;;;16.40;100.00
16834;BME280;8533;48.426;10.868;2023-09-12T02:19:52;95888.56;;;16.37;100.00
16834;BME280;8533;48.426;10.868;2023-09-12T02:22:18;95894.09;;;16.36;100.00
16834;BME280;8533;48.426;10.868;2023-09-12T02:24:43;95896.53;;;16.32;100.00
16834;BME280;8533;48.426;10.868;2023-09-12T02:27:08;95810.19;;;15.82;100.00
16834;BME280;8533;48.426;10.868;2023-09-12T02:29:34;95831.22;;;15.87;100.00
16834;BME280;8533;48.426;10.868;2023-09-12T02:31:59;95887.13;;;16.26;100.00
16834;BME280;8533;48.426;10.868;2023-09-12T02:34:24;95887.41;;;16.25;100.00
16834;BME280;8533;48.426;10.868;2023-09-12T02:36:50;95878.28;;;16.17;100.00
16834;BME280;8533;48.426;10.868;2023-09-12T02:39:15;95887.69;;;16.23;100.00
16834;BME280;8533;48.426;10.868;2023-09-12T02:41:40;95895.13;;;16.21;100.00
16834;BME280;8533;48.426;10.868;2023-09-12T02:44:06;95881.94;;;16.21;100.00
16834;BME280;8533;48.426;10.868;2023-09-12T02:46:32;95872.44;;;16.20;100.00
16834;BME280;8533;48.426;10.868;2023-09-12T02:48:57;95875.09;;;16.20;100.00
16834;BME280;8533;48.426;10.868;2023-09-12T02:51:22;95881.44;;;16.19;100.00
16834;BME280;8533;48.426;10.868;2023-09-12T02:53:49;95888.28;;;16.20;100.00
16834;BME280;8533;48.426;10.868;2023-09-12T02:56:15;95855.03;;;16.00;100.00
16834;BME280;8533;48.426;10.868;2023-09-12T02:58:40;95869.84;;;16.15;100.00
16834;BME280;8533;48.426;10.868;2023-09-12T03:01:05;95734.97;;;15.28;100.00
16834;BME280;8533;48.426;10.868;2023-09-12T03:03:31;95883.41;;;16.27;100.00
16834;BME280;8533;48.426;10.868;2023-09-12T03:05:59;95679.91;;;14.89;100.00
16834;BME280;8533;48.426;10.868;2023-09-12T03:08:25;95891.38;;;16.22;100.00
16834;BME280;8533;48.426;10.868;2023-09-12T03:10:57;95884.34;;;16.18;100.00
16834;BME280;8533;48.426;10.868;2023-09-12T03:13:24;95903.19;;;16.11;100.00
16834;BME280;8533;48.426;10.868;2023-09-12T03:15:50;95877.34;;;16.08;100.00
16834;BME280;8533;48.426;10.868;2023-09-12T03:18:15;95889.19;;;16.11;100.00
16834;BME280;8533;48.426;10.868;2023-09-12T03:20:41;95888.69;;;16.09;100.00
16834;BME280;8533;48.426;10.868;2023-09-12T03:23:06;95888.97;;;16.07;100.00
16834;BME280;8533;48.426;10.868;2023-09-12T03:25:38;95888.00;;;16.03;100.00
16834;BME280;8533;48.426;10.868;2023-09-12T03:28:05;95890.13;;;16.01;100.00
16834;BME280;8533;48.426;10.868;2023-09-12T03:30:32;95751.50;;;15.15;100.00
16834;BME280;8533;48.426;10.868;2023-09-12T03:32:58;95888.34;;;15.96;100.00
16834;BME280;8533;48.426;10.868;2023-09-12T03:35:23;95888.13;;;15.93;100.00
16834;BME280;8533;48.426;10.868;2023-09-12T03:37:48;95889.97;;;15.92;100.00
16834;BME280;8533;48.426;10.868;2023-09-12T03:40:14;95883.63;;;15.93;100.00
16834;BME280;8533;48.426;10.868;2023-09-12T03:42:39;95889.13;;;15.97;100.00
16834;BME280;8533;48.426;10.868;2023-09-12T03:45:05;95881.69;;;15.99;100.00
16834;BME280;8533;48.426;10.868;2023-09-12T03:47:30;95877.44;;;16.03;100.00
16834;BME280;8533;48.426;10.868;2023-09-12T03:49:55;95879.00;;;16.04;100.00
16834;BME280;8533;48.426;10.868;2023-09-12T03:52:21;95812.59;;;15.59;100.00
16834;BME280;8533;48.426;10.868;2023-09-12T03:54:46;95882.13;;;16.06;100.00
16834;BME280;8533;48.426;10.868;2023-09-12T03:57:11;95873.41;;;16.06;100.00
16834;BME280;8533;48.426;10.868;2023-09-12T03:59:37;95878.13;;;16.09;100.00
16834;BME280;8533;48.426;10.868;2023-09-12T04:02:03;95863.72;;;16.01;100.00
16834;BME280;8533;48.426;10.868;2023-09-12T04:04:28;95859.03;;;15.98;100.00
16834;BME280;8533;48.426;10.868;2023-09-12T04:06:54;95873.94;;;16.08;100.00
16834;BME280;8533;48.426;10.868;2023-09-12T04:09:20;95866.66;;;15.99;100.00
16834;BME280;8533;48.426;10.868;2023-09-12T04:11:45;95875.88;;;16.02;100.00
16834;BME280;8533;48.426;10.868;2023-09-12T04:14:11;95881.41;;;16.00;100.00
16834;BME280;8533;48.426;10.868;2023-09-12T04:16:36;95873.31;;;15.97;100.00
16834;BME280;8533;48.426;10.868;2023-09-12T04:19:02;95857.88;;;15.85;100.00
16834;BME280;8533;48.426;10.868;2023-09-12T04:21:28;95879.13;;;15.94;100.00
16834;BME280;8533;48.426;10.868;2023-09-12T04:23:53;95881.28;;;15.92;100.00
16834;BME280;8533;48.426;10.868;2023-09-12T04:26:19;95882.63;;;15.89;100.00
16834;BME280;8533;48.426;10.868;2023-09-12T04:28:46;95882.91;;;15.88;100.00
16834;BME280;8533;48.426;10.868;2023-09-12T04:31:12;95882.19;;;15.82;100.00
16834;BME280;8533;48.426;10.868;2023-09-12T04:33:37;95875.56;;;15.85;100.00
16834;BME280;8533;48.426;10.868;2023-09-12T04:36:03;95805.28;;;15.33;100.00
16834;BME280;8533;48.426;10.868;2023-09-12T04:38:29;95877.69;;;15.83;100.00
16834;BME280;8533;48.426;10.868;2023-09-12T04:40:57;95866.44;;;15.77;100.00
16834;BME280;8533;48.426;10.868;2023-09-12T04:43:27;95880.06;;;15.84;100.00
16834;BME280;8533;48.426;10.868;2023-09-12T04:45:53;95857.31;;;15.70;100.00
16834;BME280;8533;48.426;10.868;2023-09-12T04:48:18;95877.94;;;15.86;100.00
16834;BME280;8533;48.426;10.868;2023-09-12T04:50:43;95885.69;;;15.78;100.00
16834;BME280;8533;48.426;10.868;2023-09-12T04:53:09;95878.72;;;15.87;100.00
16834;BME280;8533;48.426;10.868;2023-09-12T04:55:37;95793.75;;;15.28;100.00
16834;BME280;8533;48.426;10.868;2023-09-12T04:58:04;95868.06;;;15.73;100.00
16834;BME280;8533;48.426;10.868;2023-09-12T05:00:30;95891.63;;;15.88;100.00
16834;BME280;8533;48.426;10.868;2023-09-12T05:02:55;95887.63;;;15.91;100.00
16834;BME280;8533;48.426;10.868;2023-09-12T05:05:21;95896.03;;;15.93;100.00
16834;BME280;8533;48.426;10.868;2023-09-12T05:07:46;95893.91;;;15.95;100.00
16834;BME280;8533;48.426;10.868;2023-09-12T05:10:11;95894.88;;;15.99;100.00
16834;BME280;8533;48.426;10.868;2023-09-12T05:12:37;95875.72;;;15.93;100.00
16834;BME280;8533;48.426;10.868;2023-09-12T05:15:02;95895.13;;;16.02;100.00
16834;BME280;8533;48.426;10.868;2023-09-12T05:17:28;95891.69;;;16.02;100.00
16834;BME280;8533;48.426;10.868;2023-09-12T05:19:53;95889.56;;;16.04;100.00
16834;BME280;8533;48.426;10.868;2023-09-12T05:22:19;95898.75;;;16.07;100.00
16834;BME280;8533;48.426;10.868;2023-09-12T05:24:45;95893.19;;;16.08;100.00
16834;BME280;8533;48.426;10.868;2023-09-12T05:27:11;95895.47;;;16.15;100.00
16834;BME280;8533;48.426;10.868;2023-09-12T05:29:37;95892.50;;;16.21;100.00
16834;BME280;8533;48.426;10.868;2023-09-12T05:32:03;95896.91;;;16.26;100.00
16834;BME280;8533;48.426;10.868;2023-09-12T05:34:28;95909.22;;;16.30;100.00
16834;BME280;8533;48.426;10.868;2023-09-12T05:36:54;95889.25;;;16.24;100.00
16834;BME280;8533;48.426;10.868;2023-09-12T05:39:19;95898.66;;;16.30;100.00
16834;BME280;8533;48.426;10.868;2023-09-12T05:41:44;95911.72;;;16.40;100.00
16834;BME280;8533;48.426;10.868;2023-09-12T05:44:10;95886.25;;;16.31;100.00
16834;BME280;8533;48.426;10.868;2023-09-12T05:46:38;95898.50;;;16.40;100.00
16834;BME280;8533;48.426;10.868;2023-09-12T05:49:03;95904.44;;;16.51;100.00
16834;BME280;8533;48.426;10.868;2023-09-12T05:51:29;95898.16;;;16.47;100.00
16834;BME280;8533;48.426;10.868;2023-09-12T05:53:54;95922.00;;;16.61;100.00
16834;BME280;8533;48.426;10.868;2023-09-12T05:56:19;95918.72;;;16.69;100.00
16834;BME280;8533;48.426;10.868;2023-09-12T05:58:46;95909.41;;;16.71;100.00
16834;BME280;8533;48.426;10.868;2023-09-12T06:01:11;95925.31;;;16.85;100.00
16834;BME280;8533;48.426;10.868;2023-09-12T06:03:37;95920.50;;;16.87;100.00
16834;BME280;8533;48.426;10.868;2023-09-12T06:06:03;95890.63;;;16.73;100.00
16834;BME280;8533;48.426;10.868;2023-09-12T06:08:28;95926.25;;;17.08;100.00
16834;BME280;8533;48.426;10.868;2023-09-12T06:10:53;95900.69;;;17.03;100.00
16834;BME280;8533;48.426;10.868;2023-09-12T06:13:20;95930.09;;;17.29;100.00
16834;BME280;8533;48.426;10.868;2023-09-12T06:15:46;95929.41;;;17.37;100.00
16834;BME280;8533;48.426;10.868;2023-09-12T06:18:11;95934.25;;;17.49;100.00
16834;BME280;8533;48.426;10.868;2023-09-12T06:20:36;95936.97;;;17.58;100.00
16834;BME280;8533;48.426;10.868;2023-09-12T06:23:02;95933.41;;;17.67;100.00
16834;BME280;8533;48.426;10.868;2023-09-12T06:25:28;95898.97;;;17.53;100.00
16834;BME280;8533;48.426;10.868;2023-09-12T06:27:54;95944.22;;;17.93;100.00
16834;BME280;8533;48.426;10.868;2023-09-12T06:30:19;95939.22;;;18.05;100.00
16834;BME280;8533;48.426;10.868;2023-09-12T06:32:45;95929.69;;;18.18;100.00
16834;BME280;8533;48.426;10.868;2023-09-12T06:35:10;95922.59;;;18.27;100.00
16834;BME280;8533;48.426;10.868;2023-09-12T06:37:37;95923.94;;;18.38;100.00
16834;BME280;8533;48.426;10.868;2023-09-12T06:40:02;95922.94;;;18.48;100.00
16834;BME280;8533;48.426;10.868;2023-09-12T06:42:28;95909.38;;;18.49;100.00
16834;BME280;8533;48.426;10.868;2023-09-12T06:44:54;95924.84;;;18.70;100.00
16834;BME280;8533;48.426;10.868;2023-09-12T06:47:19;95919.75;;;18.82;100.00
16834;BME280;8533;48.426;10.868;2023-09-12T06:49:45;95918.25;;;18.89;100.00
16834;BME280;8533;48.426;10.868;2023-09-12T06:52:10;95926.00;;;19.08;100.00
16834;BME280;8533;48.426;10.868;2023-09-12T06:54:35;95921.72;;;19.21;100.00
16834;BME280;8533;48.426;10.868;2023-09-12T06:57:01;95928.00;;;19.33;100.00
16834;BME280;8533;48.426;10.868;2023-09-12T06:59:26;95926.06;;;19.48;100.00
16834;BME280;8533;48.426;10.868;2023-09-12T07:01:51;95907.81;;;19.55;100.00
16834;BME280;8533;48.426;10.868;2023-09-12T07:04:16;95909.63;;;19.76;100.00
16834;BME280;8533;48.426;10.868;2023-09-12T07:06:42;95926.84;;;19.96;100.00
16834;BME280;8533;48.426;10.868;2023-09-12T07:09:08;95910.78;;;20.01;100.00
16834;BME280;8533;48.426;10.868;2023-09-12T07:11:34;95930.16;;;20.28;100.00
16834;BME280;8533;48.426;10.868;2023-09-12T07:14:00;95933.34;;;20.47;100.00
16834;BME280;8533;48.426;10.868;2023-09-12T07:16:25;95930.38;;;20.66;100.00
16834;BME280;8533;48.426;10.868;2023-09-12T07:18:50;95930.50;;;20.86;100.00
16834;BME280;8533;48.426;10.868;2023-09-12T07:21:16;95937.97;;;21.02;100.00
16834;BME280;8533;48.426;10.868;2023-09-12T07:23:41;95930.59;;;21.16;100.00
16834;BME280;8533;48.426;10.868;2023-09-12T07:26:12;95941.69;;;21.35;100.00
16834;BME280;8533;48.426;10.868;2023-09-12T07:28:37;95928.78;;;21.54;100.00
16834;BME280;8533;48.426;10.868;2023-09-12T07:31:03;95932.63;;;21.65;100.00
16834;BME280;8533;48.426;10.868;2023-09-12T07:33:28;95851.66;;;21.37;100.00
16834;BME280;8533;48.426;10.868;2023-09-12T07:35:53;95924.50;;;22.00;100.00
16834;BME280;8533;48.426;10.868;2023-09-12T07:38:20;95927.38;;;22.16;100.00
16834;BME280;8533;48.426;10.868;2023-09-12T07:40:45;95930.25;;;22.31;97.82
16834;BME280;8533;48.426;10.868;2023-09-12T07:43:11;95933.44;;;22.45;96.61
16834;BME280;8533;48.426;10.868;2023-09-12T07:45:36;95869.53;;;22.16;95.41
16834;BME280;8533;48.426;10.868;2023-09-12T07:48:07;95923.34;;;22.72;94.39
16834;BME280;8533;48.426;10.868;2023-09-12T07:50:32;95940.00;;;22.90;95.53
16834;BME280;8533;48.426;10.868;2023-09-12T07:52:57;95945.38;;;23.02;92.73
16834;BME280;8533;48.426;10.868;2023-09-12T07:55:23;95895.50;;;22.81;91.51
16834;BME280;8533;48.426;10.868;2023-09-12T07:57:48;95942.63;;;23.10;91.85
16834;BME280;8533;48.426;10.868;2023-09-12T08:00:13;95948.91;;;23.27;93.06
16834;BME280;8533;48.426;10.868;2023-09-12T08:02:39;95943.03;;;23.45;90.98
16834;BME280;8533;48.426;10.868;2023-09-12T08:05:05;95945.19;;;23.64;90.62
16834;BME280;8533;48.426;10.868;2023-09-12T08:07:30;95948.66;;;23.77;87.58
16834;BME280;8533;48.426;10.868;2023-09-12T08:09:57;95946.97;;;23.84;87.18
16834;BME280;8533;48.426;10.868;2023-09-12T08:12:24;95788.06;;;22.93;86.70
16834;BME280;8533;48.426;10.868;2023-09-12T08:14:51;95959.34;;;24.13;87.05
16834;BME280;8533;48.426;10.868;2023-09-12T08:17:16;95948.50;;;24.34;85.89
16834;BME280;8533;48.426;10.868;2023-09-12T08:19:42;95907.97;;;24.20;84.10
16834;BME280;8533;48.426;10.868;2023-09-12T08:22:08;95947.34;;;24.59;83.64
16834;BME280;8533;48.426;10.868;2023-09-12T08:24:35;95916.28;;;24.55;81.97
16834;BME280;8533;48.426;10.868;2023-09-12T08:27:00;95943.03;;;24.83;81.08
16834;BME280;8533;48.426;10.868;2023-09-12T08:29:27;95914.94;;;24.49;82.24
16834;BME280;8533;48.426;10.868;2023-09-12T08:31:53;95950.34;;;24.98;80.97
16834;BME280;8533;48.426;10.868;2023-09-12T08:34:18;95939.59;;;25.10;78.85
16834;BME280;8533;48.426;10.868;2023-09-12T08:36:43;95945.44;;;25.43;79.06
16834;BME280;8533;48.426;10.868;2023-09-12T08:39:15;95914.56;;;25.34;76.80
16834;BME280;8533;48.426;10.868;2023-09-12T08:41:41;95956.34;;;25.82;76.88
16834;BME280;8533;48.426;10.868;2023-09-12T08:44:07;95947.38;;;26.25;74.37
16834;BME280;8533;48.426;10.868;2023-09-12T08:46:33;95942.88;;;26.64;70.88
16834;BME280;8533;48.426;10.868;2023-09-12T08:48:59;95945.91;;;27.20;69.45
16834;BME280;8533;48.426;10.868;2023-09-12T08:51:25;95941.00;;;27.26;69.07
16834;BME280;8533;48.426;10.868;2023-09-12T08:53:51;95933.59;;;27.61;66.79
16834;BME280;8533;48.426;10.868;2023-09-12T08:56:17;95939.31;;;28.09;66.66
16834;BME280;8533;48.426;10.868;2023-09-12T08:58:43;95921.97;;;28.29;63.49
16834;BME280;8533;48.426;10.868;2023-09-12T09:01:09;95945.22;;;28.44;65.07
16834;BME280;8533;48.426;10.868;2023-09-12T09:03:38;95921.81;;;28.78;61.67
16834;BME280;8533;48.426;10.868;2023-09-12T09:06:05;95942.78;;;28.96;61.02
16834;BME280;8533;48.426;10.868;2023-09-12T09:08:31;95956.94;;;29.22;59.93
16834;BME280;8533;48.426;10.868;2023-09-12T09:10:57;95949.91;;;29.48;58.73
16834;BME280;8533;48.426;10.868;2023-09-12T09:13:24;95943.91;;;29.69;58.57
16834;BME280;8533;48.426;10.868;2023-09-12T09:16:09;95944.69;;;29.69;58.46
16834;BME280;8533;48.426;10.868;2023-09-12T09:18:56;95951.63;;;30.18;57.10
16834;BME280;8533;48.426;10.868;2023-09-12T09:21:24;95930.22;;;29.44;60.17
16834;BME280;8533;48.426;10.868;2023-09-12T09:23:51;95941.63;;;29.71;60.62
16834;BME280;8533;48.426;10.868;2023-09-12T09:26:16;95941.97;;;30.17;58.00
16834;BME280;8533;48.426;10.868;2023-09-12T09:28:42;95941.75;;;30.43;57.26
16834;BME280;8533;48.426;10.868;2023-09-12T09:31:12;95936.91;;;30.73;55.38
16834;BME280;8533;48.426;10.868;2023-09-12T09:33:38;95917.72;;;31.03;54.37
16834;BME280;8533;48.426;10.868;2023-09-12T09:36:05;95900.72;;;30.96;53.07
16834;BME280;8533;48.426;10.868;2023-09-12T09:38:31;95934.38;;;31.23;52.07
16834;BME280;8533;48.426;10.868;2023-09-12T09:40:57;95909.94;;;30.81;52.80
16834;BME280;8533;48.426;10.868;2023-09-12T09:43:22;95934.34;;;31.09;51.44
16834;BME280;8533;48.426;10.868;2023-09-12T09:45:50;95935.91;;;31.10;51.97
16834;BME280;8533;48.426;10.868;2023-09-12T09:50:44;95847.72;;;30.56;51.88
16834;BME280;8533;48.426;10.868;2023-09-12T09:53:10;95924.75;;;31.33;50.71
16834;BME280;8533;48.426;10.868;2023-09-12T09:55:36;95929.38;;;31.32;50.59
16834;BME280;8533;48.426;10.868;2023-09-12T09:58:02;95923.56;;;31.16;52.36
16834;BME280;8533;48.426;10.868;2023-09-12T10:00:29;95927.47;;;31.36;51.85
16834;BME280;8533;48.426;10.868;2023-09-12T10:02:55;95920.50;;;31.35;51.40
16834;BME280;8533;48.426;10.868;2023-09-12T10:05:21;95921.28;;;31.32;49.76
16834;BME280;8533;48.426;10.868;2023-09-12T10:07:49;95928.63;;;31.42;50.72
16834;BME280;8533;48.426;10.868;2023-09-12T10:10:16;95915.47;;;31.30;50.89
16834;BME280;8533;48.426;10.868;2023-09-12T10:12:48;95877.56;;;31.02;51.81
16834;BME280;8533;48.426;10.868;2023-09-12T10:15:14;95893.06;;;31.33;51.08
16834;BME280;8533;48.426;10.868;2023-09-12T10:17:43;95879.94;;;31.57;49.27
16834;BME280;8533;48.426;10.868;2023-09-12T10:20:15;95902.00;;;31.76;51.16
16834;BME280;8533;48.426;10.868;2023-09-12T10:23:03;95917.03;;;32.06;50.12
16834;BME280;8533;48.426;10.868;2023-09-12T10:25:35;95750.53;;;31.02;51.40
16834;BME280;8533;48.426;10.868;2023-09-12T10:28:02;95875.69;;;32.02;49.68
16834;BME280;8533;48.426;10.868;2023-09-12T10:30:29;95895.75;;;32.11;48.24
16834;BME280;8533;48.426;10.868;2023-09-12T10:32:57;95890.78;;;31.99;49.27
16834;BME280;8533;48.426;10.868;2023-09-12T10:35:22;95895.81;;;31.83;47.89
16834;BME280;8533;48.426;10.868;2023-09-12T10:37:49;95902.78;;;31.66;46.24
16834;BME280;8533;48.426;10.868;2023-09-12T10:40:16;95888.06;;;31.60;46.53
16834;BME280;8533;48.426;10.868;2023-09-12T10:42:42;95884.97;;;31.47;47.74
16834;BME280;8533;48.426;10.868;2023-09-12T10:45:09;95872.22;;;31.48;47.17
16834;BME280;8533;48.426;10.868;2023-09-12T10:47:36;95890.38;;;31.40;47.18
16834;BME280;8533;48.426;10.868;2023-09-12T10:50:01;95888.06;;;31.28;46.92
16834;BME280;8533;48.426;10.868;2023-09-12T10:52:28;95879.56;;;31.26;46.84
16834;BME280;8533;48.426;10.868;2023-09-12T10:54:54;95873.00;;;31.41;47.10
16834;BME280;8533;48.426;10.868;2023-09-12T10:57:19;95873.38;;;31.58;47.35
16834;BME280;8533;48.426;10.868;2023-09-12T11:04:55;95874.53;;;31.92;46.15
16834;BME280;8533;48.426;10.868;2023-09-12T11:12:40;95872.94;;;32.19;44.91
16834;BME280;8533;48.426;10.868;2023-09-12T11:15:06;95867.91;;;32.14;42.40
16834;BME280;8533;48.426;10.868;2023-09-12T11:17:40;95869.50;;;31.91;43.38
16834;BME280;8533;48.426;10.868;2023-09-12T11:20:07;95870.25;;;32.27;42.58
16834;BME280;8533;48.426;10.868;2023-09-12T11:22:37;95566.88;;;30.38;43.10
16834;BME280;8533;48.426;10.868;2023-09-12T11:25:05;95877.94;;;32.32;43.10
16834;BME280;8533;48.426;10.868;2023-09-12T11:30:19;95864.09;;;31.59;44.49
16834;BME280;8533;48.426;10.868;2023-09-12T11:32:49;95887.72;;;31.62;45.92
16834;BME280;8533;48.426;10.868;2023-09-12T11:35:16;95862.94;;;31.99;44.20
16834;BME280;8533;48.426;10.868;2023-09-12T11:37:49;95863.63;;;32.31;38.84
16834;BME280;8533;48.426;10.868;2023-09-12T11:40:17;95777.56;;;31.59;37.37
16834;BME280;8533;48.426;10.868;2023-09-12T11:42:43;95864.72;;;32.51;37.78
16834;BME280;8533;48.426;10.868;2023-09-12T11:45:10;95857.22;;;32.84;37.07
16834;BME280;8533;48.426;10.868;2023-09-12T11:47:43;95858.25;;;33.08;39.59
16834;BME280;8533;48.426;10.868;2023-09-12T11:50:28;95852.75;;;32.45;39.86
16834;BME280;8533;48.426;10.868;2023-09-12T11:53:08;95827.69;;;32.13;39.53
16834;BME280;8533;48.426;10.868;2023-09-12T11:55:43;95666.38;;;30.82;43.88
16834;BME280;8533;48.426;10.868;2023-09-12T11:58:10;95759.38;;;31.56;43.25
16834;BME280;8533;48.426;10.868;2023-09-12T12:00:36;95854.78;;;32.24;45.14
16834;BME280;8533;48.426;10.868;2023-09-12T12:03:03;95855.38;;;32.74;42.34
16834;BME280;8533;48.426;10.868;2023-09-12T12:05:29;95855.13;;;33.09;42.09
16834;BME280;8533;48.426;10.868;2023-09-12T12:07:55;95859.44;;;33.07;41.52
16834;BME280;8533;48.426;10.868;2023-09-12T12:10:20;95858.94;;;33.19;38.91
16834;BME280;8533;48.426;10.868;2023-09-12T12:12:52;95850.47;;;33.10;39.01
16834;BME280;8533;48.426;10.868;2023-09-12T12:15:17;95833.44;;;33.13;38.51
16834;BME280;8533;48.426;10.868;2023-09-12T12:17:43;95850.31;;;33.38;38.83
16834;BME280;8533;48.426;10.868;2023-09-12T12:20:10;95852.03;;;33.11;38.20
16834;BME280;8533;48.426;10.868;2023-09-12T12:22:40;95781.75;;;32.79;38.44
16834;BME280;8533;48.426;10.868;2023-09-12T12:25:10;95844.75;;;31.89;41.85
16834;BME280;8533;48.426;10.868;2023-09-12T12:27:39;95844.75;;;31.96;42.64
16834;BME280;8533;48.426;10.868;2023-09-12T12:30:10;95842.88;;;31.75;40.95
16834;BME280;8533;48.426;10.868;2023-09-12T12:32:40;95866.31;;;32.38;40.29
16834;BME280;8533;48.426;10.868;2023-09-12T12:35:06;95795.19;;;32.20;40.99
16834;BME280;8533;48.426;10.868;2023-09-12T12:37:32;95839.00;;;32.88;39.47
16834;BME280;8533;48.426;10.868;2023-09-12T12:39:59;95826.56;;;32.94;40.66
16834;BME280;8533;48.426;10.868;2023-09-12T12:42:32;95833.09;;;33.04;38.88
16834;BME280;8533;48.426;10.868;2023-09-12T12:44:58;95841.00;;;32.80;38.61
16834;BME280;8533;48.426;10.868;2023-09-12T12:47:24;95839.34;;;32.97;38.13
16834;BME280;8533;48.426;10.868;2023-09-12T12:49:52;95826.56;;;32.97;38.56
16834;BME280;8533;48.426;10.868;2023-09-12T12:52:22;95665.13;;;32.38;37.39
16834;BME280;8533;48.426;10.868;2023-09-12T12:54:47;95825.19;;;33.79;36.47
16834;BME280;8533;48.426;10.868;2023-09-12T12:57:12;95820.84;;;33.85;37.58
16834;BME280;8533;48.426;10.868;2023-09-12T12:59:45;95840.81;;;33.64;36.77
16834;BME280;8533;48.426;10.868;2023-09-12T13:02:10;95826.00;;;34.09;36.03
16834;BME280;8533;48.426;10.868;2023-09-12T13:04:37;95821.63;;;34.19;36.52
16834;BME280;8533;48.426;10.868;2023-09-12T13:07:02;95818.63;;;34.10;35.93